createdAt,value
2018-05-25T00:01:42.366Z,78.60
2018-05-25T00:04:11.082Z,78.90
2018-05-25T00:06:39.811Z,79.10
2018-05-25T00:09:09.285Z,80.10
2018-05-25T00:11:37.998Z,79.70
2018-05-25T00:14:06.715Z,79.80
2018-05-25T00:16:35.432Z,80.00
2018-05-25T00:19:04.163Z,80.30
2018-05-25T00:21:32.881Z,80.30
2018-05-25T00:24:01.613Z,80.60
2018-05-25T00:26:30.320Z,80.80
2018-05-25T00:28:59.036Z,80.90
2018-05-25T00:31:28.483Z,81.20
2018-05-25T00:33:57.212Z,81.40
2018-05-25T00:36:26.725Z,81.90
2018-05-25T00:38:56.200Z,82.40
2018-05-25T00:41:24.596Z,82.30
2018-05-25T00:43:53.316Z,82.30
2018-05-25T00:46:22.034Z,82.30
2018-05-25T00:48:50.761Z,82.70
2018-05-25T00:51:19.473Z,82.80
2018-05-25T00:53:48.189Z,83.70
2018-05-25T00:56:16.574Z,82.80
2018-05-25T00:58:45.292Z,82.50
2018-05-25T01:01:13.999Z,82.50
2018-05-25T01:03:43.473Z,83.00
2018-05-25T01:06:12.195Z,83.00
2018-05-25T01:08:41.338Z,83.30
2018-05-25T01:11:10.058Z,83.20
2018-05-25T01:13:38.766Z,83.20
2018-05-25T01:16:08.251Z,83.70
2018-05-25T01:18:36.961Z,83.70
2018-05-25T01:21:06.110Z,83.80
2018-05-25T01:23:34.818Z,83.70
2018-05-25T01:26:03.542Z,83.90
2018-05-25T01:28:33.022Z,84.00
2018-05-25T01:31:01.406Z,84.00
2018-05-25T01:33:30.131Z,84.40
2018-05-25T01:35:58.847Z,85.00
2018-05-25T01:38:27.599Z,85.40
2018-05-25T01:40:56.302Z,85.50
2018-05-25T01:43:25.028Z,85.70
2018-05-25T01:45:53.743Z,85.80
2018-05-25T01:48:22.451Z,86.20
2018-05-25T01:50:51.169Z,86.40
2018-05-25T01:53:19.893Z,87.30
2018-05-25T01:55:48.613Z,87.50
2018-05-25T01:58:17.333Z,87.80
2018-05-25T02:00:46.973Z,88.20
2018-05-25T02:03:15.692Z,88.40
2018-05-25T02:05:44.396Z,88.30
2018-05-25T02:08:13.109Z,88.30
2018-05-25T02:10:41.821Z,88.20
2018-05-25T02:13:10.545Z,88.40
2018-05-25T02:15:39.258Z,88.60
2018-05-25T02:18:07.973Z,88.70
2018-05-25T02:20:36.699Z,88.70
2018-05-25T02:23:05.851Z,89.00
2018-05-25T02:25:34.575Z,88.90
2018-05-25T02:28:03.299Z,89.10
2018-05-25T02:30:32.030Z,89.20
2018-05-25T02:33:00.746Z,89.50
2018-05-25T02:35:30.226Z,89.90
2018-05-25T02:37:58.966Z,89.90
2018-05-25T02:40:27.683Z,90.00
2018-05-25T02:42:56.397Z,90.10
2018-05-25T02:45:25.119Z,90.20
2018-05-25T02:47:53.875Z,90.40
2018-05-25T02:50:22.591Z,90.60
2018-05-25T02:52:52.067Z,91.20
2018-05-25T02:55:20.787Z,91.40
2018-05-25T02:57:49.512Z,91.30
2018-05-25T03:00:18.223Z,91.60
2018-05-25T03:02:47.012Z,91.80
2018-05-25T03:05:15.395Z,91.90
2018-05-25T03:07:44.117Z,92.10
2018-05-25T03:10:12.500Z,92.20
2018-05-25T03:12:41.208Z,92.60
2018-05-25T03:15:09.587Z,92.90
2018-05-25T03:17:38.310Z,92.90
2018-05-25T03:20:07.030Z,93.30
2018-05-25T03:22:36.511Z,94.00
2018-05-25T03:25:04.891Z,93.90
2018-05-25T03:27:33.623Z,94.10
2018-05-25T03:30:02.642Z,94.40
2018-05-25T03:32:31.378Z,94.70
2018-05-25T03:35:00.854Z,95.50
2018-05-25T03:37:29.580Z,95.30
2018-05-25T03:39:58.305Z,95.40
2018-05-25T03:42:27.035Z,95.70
2018-05-25T03:44:55.737Z,96.10
2018-05-25T03:47:25.245Z,96.60
2018-05-25T03:49:54.406Z,96.70
2018-05-25T03:52:23.138Z,96.70
2018-05-25T03:54:51.877Z,96.80
2018-05-25T03:57:20.605Z,96.90
2018-05-25T04:00:01.323Z,97.40
2018-05-25T04:02:30.050Z,97.40
2018-05-25T04:04:59.746Z,97.40
2018-05-25T04:07:28.471Z,97.90
2018-05-25T04:09:57.222Z,97.80
2018-05-25T04:12:25.933Z,97.90
2018-05-25T04:14:55.413Z,98.50
2018-05-25T04:17:26.727Z,98.50
2018-05-25T04:20:21.435Z,98.50
2018-05-25T04:26:10.525Z,98.90
2018-05-25T05:14:55.232Z,96.70
2018-05-25T05:17:24.899Z,96.30
2018-05-25T05:19:53.638Z,96.30
2018-05-25T05:22:22.394Z,96.10
2018-05-25T05:24:51.142Z,96.00
2018-05-25T05:27:22.537Z,95.90
2018-05-25T05:29:51.288Z,95.90
2018-05-25T05:32:41.305Z,95.50
2018-05-25T05:35:10.025Z,95.40
2018-05-25T05:37:38.746Z,95.50
2018-05-25T05:40:08.243Z,95.60
2018-05-25T05:42:39.213Z,95.40
2018-05-25T05:45:07.628Z,95.30
2018-05-25T05:47:36.359Z,95.20
2018-05-25T05:50:05.878Z,95.00
2018-05-25T05:52:34.680Z,95.00
2018-05-25T05:55:03.391Z,94.70
2018-05-25T05:57:32.131Z,94.80
2018-05-25T06:00:00.867Z,94.80
2018-05-25T06:02:29.604Z,94.80
2018-05-25T06:05:00.086Z,94.60
2018-05-25T06:07:28.732Z,94.60
2018-05-25T06:09:58.246Z,94.40
2018-05-25T06:12:26.994Z,94.40
2018-05-25T06:15:01.447Z,94.30
2018-05-25T06:17:33.933Z,94.10
2018-05-25T06:20:03.628Z,94.10
2018-05-25T06:22:33.332Z,94.10
2018-05-25T06:25:02.824Z,93.80
2018-05-25T06:27:31.644Z,93.70
2018-05-25T06:30:00.379Z,94.10
2018-05-25T06:32:29.288Z,93.70
2018-05-25T06:34:59.248Z,93.80
2018-05-25T06:37:28.107Z,93.80
2018-05-25T06:39:57.775Z,93.40
2018-05-25T06:42:26.616Z,93.40
2018-05-25T06:44:56.838Z,93.30
2018-05-25T06:47:26.353Z,93.30
2018-05-25T06:49:55.609Z,93.50
2018-05-25T06:52:24.343Z,93.50
2018-05-25T06:54:53.842Z,93.30
2018-05-25T06:57:23.313Z,93.00
2018-05-25T06:59:52.023Z,93.00
2018-05-25T07:05:52.708Z,92.40
2018-05-25T07:08:21.088Z,92.30
2018-05-25T07:10:50.574Z,92.10
2018-05-25T07:13:19.269Z,92.10
2018-05-25T07:15:48.757Z,91.80
2018-05-25T07:18:17.468Z,91.80
2018-05-25T07:20:46.942Z,91.40
2018-05-25T07:23:15.662Z,91.40
2018-05-25T07:28:29.204Z,91.10
2018-05-25T07:31:22.783Z,90.50
2018-05-25T07:33:52.270Z,90.40
2018-05-25T07:36:20.997Z,90.40
2018-05-25T07:38:49.717Z,90.40
2018-05-25T07:41:18.551Z,89.60
2018-05-25T07:43:48.030Z,88.20
2018-05-25T07:46:17.090Z,88.60
2018-05-25T07:48:45.837Z,85.70
2018-05-25T07:51:15.337Z,80.50
2018-05-25T07:53:44.083Z,80.50
2018-05-25T07:56:12.509Z,80.20
2018-05-25T07:58:42.001Z,78.80
2018-05-25T08:01:10.737Z,78.70
2018-05-25T08:03:39.483Z,78.20
2018-05-25T08:06:08.190Z,77.40
2018-05-25T08:08:37.677Z,75.30
2018-05-25T08:11:06.421Z,75.30
2018-05-25T08:13:35.151Z,72.30
2018-05-25T08:16:04.455Z,71.50
2018-05-25T08:18:33.180Z,69.10
2018-05-25T08:21:01.903Z,70.00
2018-05-25T08:23:31.424Z,68.40
2018-05-25T08:26:00.140Z,66.60
2018-05-25T08:28:29.626Z,65.90
2018-05-25T08:30:58.369Z,65.90
2018-05-25T08:33:27.123Z,64.50
2018-05-25T08:35:57.638Z,63.90
2018-05-25T08:38:26.386Z,63.20
2018-05-25T08:40:55.122Z,63.70
2018-05-25T08:43:24.865Z,62.00
2018-05-25T08:45:53.315Z,61.90
2018-05-25T08:48:24.375Z,60.70
2018-05-25T08:50:52.829Z,59.40
2018-05-25T08:53:21.294Z,58.50
2018-05-25T08:55:50.506Z,57.80
2018-05-25T08:58:19.005Z,57.70
2018-05-25T09:00:48.500Z,56.70
2018-05-25T09:03:17.830Z,56.50
2018-05-25T09:05:47.118Z,57.00
2018-05-25T09:08:15.243Z,55.10
2018-05-25T09:10:45.078Z,53.90
2018-05-25T09:13:13.532Z,53.90
2018-05-25T09:15:42.770Z,53.50
2018-05-25T09:18:10.910Z,53.40
2018-05-25T09:20:40.149Z,53.80
2018-05-25T09:23:08.698Z,53.80
2018-05-25T09:25:37.918Z,52.30
2018-05-25T09:28:06.380Z,52.10
2018-05-25T09:30:35.271Z,51.60
2018-05-25T09:33:04.161Z,51.00
2018-05-25T09:35:33.424Z,50.40
2018-05-25T09:38:01.874Z,50.40
2018-05-25T09:40:30.335Z,50.10
2018-05-25T09:42:58.837Z,49.20
2018-05-25T09:45:27.287Z,48.60
2018-05-25T09:47:56.502Z,46.80
2018-05-25T09:50:26.625Z,47.00
2018-05-25T09:52:55.080Z,46.90
2018-05-25T09:55:23.549Z,46.90
2018-05-25T09:57:57.746Z,46.40
2018-05-25T10:00:25.975Z,45.40
2018-05-25T10:02:55.209Z,45.60
2018-05-25T10:05:23.653Z,45.60
2018-05-25T10:07:53.652Z,45.30
2018-05-25T10:10:22.134Z,45.40
2018-05-25T10:12:50.756Z,44.60
2018-05-25T10:15:19.238Z,45.00
2018-05-25T10:17:47.736Z,45.10
2018-05-25T10:20:16.349Z,44.20
2018-05-25T10:22:44.821Z,44.30
2018-05-25T10:25:13.890Z,44.30
2018-05-25T10:27:42.342Z,44.30
2018-05-25T10:30:10.799Z,44.30
2018-05-25T10:32:39.276Z,45.60
2018-05-25T10:35:07.757Z,45.30
2018-05-25T10:37:36.370Z,45.50
2018-05-25T10:40:05.297Z,45.60
2018-05-25T10:42:33.414Z,45.80
2018-05-25T10:45:01.881Z,46.40
2018-05-25T10:47:30.358Z,46.80
2018-05-25T10:49:58.820Z,46.80
2018-05-25T10:52:27.482Z,46.00
2018-05-25T10:54:59.353Z,46.00
2018-05-25T11:00:02.000Z,47.10
2018-05-25T11:02:30.469Z,47.60
2018-05-25T11:04:59.773Z,47.40
2018-05-25T11:07:28.255Z,46.80
2018-05-25T11:09:56.748Z,47.10
2018-05-25T11:12:26.006Z,46.20
2018-05-25T11:14:54.472Z,45.60
2018-05-25T11:17:23.683Z,46.10
2018-05-25T11:19:52.132Z,46.10
2018-05-25T11:22:21.352Z,46.80
2018-05-25T11:24:49.815Z,46.10
2018-05-25T11:27:19.041Z,45.90
2018-05-25T11:29:47.524Z,45.80
2018-05-25T11:32:15.976Z,45.00
2018-05-25T11:34:44.450Z,44.60
2018-05-25T12:20:54.587Z,43.90
2018-05-25T12:23:23.047Z,43.30
2018-05-25T12:25:51.489Z,43.60
2018-05-25T12:28:19.948Z,43.80
2018-05-25T12:30:48.453Z,43.20
2018-05-25T12:33:17.166Z,42.70
2018-05-25T12:35:45.613Z,42.40
2018-05-25T12:38:14.070Z,43.10
2018-05-25T12:40:42.188Z,43.20
2018-05-25T12:43:11.405Z,42.60
2018-05-25T12:45:39.854Z,42.60
2018-05-25T12:48:08.337Z,42.60
2018-05-25T12:50:36.787Z,42.40
2018-05-25T12:53:05.236Z,42.70
2018-05-25T12:55:33.684Z,42.40
2018-05-25T12:58:02.969Z,43.20
2018-05-25T13:00:32.310Z,43.10
2018-05-25T13:03:00.435Z,42.80
2018-05-25T13:05:30.748Z,41.60
2018-05-25T13:07:59.218Z,42.20
2018-05-25T13:10:28.584Z,40.90
2018-05-25T13:12:57.811Z,41.20
2018-05-25T13:15:26.674Z,41.20
2018-05-25T13:17:55.993Z,40.80
2018-05-25T13:20:24.466Z,40.70
2018-05-25T13:22:53.689Z,41.10
2018-05-25T13:25:22.165Z,41.00
2018-05-25T13:27:51.433Z,40.70
2018-05-25T13:30:19.562Z,40.30
2018-05-25T13:32:48.036Z,39.90
2018-05-25T13:35:16.983Z,39.90
2018-05-25T13:37:46.285Z,40.70
2018-05-25T13:40:15.524Z,40.00
2018-05-25T13:42:44.658Z,40.00
2018-05-25T13:45:13.195Z,40.50
2018-05-25T13:47:41.700Z,40.20
2018-05-25T13:50:10.164Z,39.10
2018-05-25T13:52:38.329Z,40.00
2018-05-25T13:55:06.778Z,39.60
2018-05-25T13:57:35.265Z,39.70
2018-05-25T14:00:06.334Z,39.60
2018-05-25T14:02:34.810Z,39.50
2018-05-25T14:05:03.658Z,39.60
2018-05-25T14:07:32.155Z,39.00
2018-05-25T14:10:00.622Z,39.00
2018-05-25T14:12:29.093Z,39.60
2018-05-25T14:14:57.541Z,39.40
2018-05-25T14:17:26.062Z,39.50
2018-05-25T14:19:54.515Z,38.60
2018-05-25T14:22:22.970Z,39.20
2018-05-25T14:24:53.077Z,39.30
2018-05-25T14:27:22.302Z,38.40
2018-05-25T14:29:50.421Z,38.40
2018-05-25T14:32:18.899Z,38.60
2018-05-25T14:34:47.344Z,38.10
2018-05-25T14:37:15.780Z,38.20
2018-05-25T14:39:44.237Z,38.00
2018-05-25T14:42:12.684Z,37.90
2018-05-25T14:44:41.148Z,37.70
2018-05-25T14:47:10.428Z,36.80
2018-05-25T14:49:39.055Z,37.40
2018-05-25T14:52:07.527Z,36.90
2018-05-25T14:54:36.162Z,37.40
2018-05-25T14:57:04.295Z,37.40
2018-05-25T14:59:33.741Z,38.00
2018-05-25T15:02:02.206Z,38.00
2018-05-25T15:04:30.653Z,37.60
2018-05-25T15:06:59.885Z,37.90
2018-05-25T15:09:28.364Z,37.80
2018-05-25T15:11:56.832Z,37.70
2018-05-25T15:14:25.314Z,38.30
2018-05-25T15:16:53.451Z,38.60
2018-05-25T15:19:22.619Z,39.00
2018-05-25T15:21:51.079Z,39.30
2018-05-25T15:24:19.560Z,38.50
2018-05-25T15:26:47.673Z,38.30
2018-05-25T15:29:16.133Z,37.80
2018-05-25T15:31:44.629Z,38.20
2018-05-25T15:34:13.266Z,38.20
2018-05-25T15:36:41.729Z,38.20
2018-05-25T15:39:10.197Z,38.80
2018-05-25T15:41:38.652Z,38.90
2018-05-25T15:44:07.111Z,38.30
2018-05-25T15:46:36.423Z,38.40
2018-05-25T15:49:04.898Z,37.70
2018-05-25T15:51:33.649Z,37.70
2018-05-25T15:54:03.174Z,37.60
2018-05-25T15:59:30.817Z,37.70
2018-05-25T16:01:59.302Z,37.60
2018-05-25T16:04:27.788Z,37.80
2018-05-25T16:06:56.287Z,37.90
2018-05-25T16:09:25.596Z,38.00
2018-05-25T16:11:54.209Z,38.00
2018-05-25T16:14:22.714Z,38.10
2018-05-25T16:16:51.170Z,38.80
2018-05-25T16:19:19.635Z,39.80
2018-05-25T16:21:48.097Z,40.20
2018-05-25T16:24:18.338Z,41.00
2018-05-25T16:26:46.794Z,41.00
2018-05-25T16:29:16.028Z,41.60
2018-05-25T16:31:44.146Z,41.50
2018-05-25T16:34:12.614Z,41.70
2018-05-25T16:36:41.259Z,42.10
2018-05-25T16:39:09.782Z,42.50
2018-05-25T16:41:38.267Z,42.50
2018-05-25T16:44:06.734Z,42.60
2018-05-25T16:46:35.901Z,42.90
2018-05-25T16:49:04.363Z,43.20
2018-05-25T16:51:34.651Z,43.60
2018-05-25T16:54:03.127Z,43.10
2018-05-25T16:56:32.495Z,43.40
2018-05-25T16:59:03.327Z,43.70
2018-05-25T17:01:32.755Z,44.10
2018-05-25T17:04:02.710Z,44.10
2018-05-25T17:06:31.197Z,44.10
2018-05-25T17:08:59.660Z,44.40
2018-05-25T17:11:28.106Z,44.50
2018-05-25T17:13:56.971Z,44.80
2018-05-25T17:16:26.181Z,45.20
2018-05-25T17:18:55.064Z,45.00
2018-05-25T17:21:24.286Z,45.20
2018-05-25T17:23:52.750Z,45.10
2018-05-25T17:26:22.269Z,45.60
2018-05-25T17:28:51.701Z,45.50
2018-05-25T17:31:22.209Z,45.70
2018-05-25T17:33:52.755Z,45.70
2018-05-25T17:36:21.222Z,45.80
2018-05-25T17:38:49.740Z,46.30
2018-05-25T17:41:18.212Z,46.30
2018-05-25T17:43:47.506Z,46.30
2018-05-25T17:46:15.948Z,46.40
2018-05-25T17:48:46.330Z,47.10
2018-05-25T17:51:14.798Z,47.00
2018-05-25T17:53:43.259Z,47.00
2018-05-25T17:56:11.713Z,47.20
2018-05-25T17:58:40.178Z,47.80
2018-05-25T18:01:08.629Z,47.70
2018-05-25T18:03:36.845Z,47.80
2018-05-25T18:06:06.131Z,48.30
2018-05-25T18:08:35.146Z,48.20
2018-05-25T18:11:04.381Z,48.70
2018-05-25T18:13:34.154Z,48.70
2018-05-25T18:16:03.294Z,49.20
2018-05-25T18:18:31.835Z,49.10
2018-05-25T18:21:00.336Z,49.20
2018-05-25T18:23:30.526Z,49.90
2018-05-25T18:26:02.179Z,49.80
2018-05-25T18:28:33.880Z,50.30
2018-05-25T18:31:04.886Z,51.00
2018-05-25T18:33:34.281Z,51.30
2018-05-25T18:36:03.972Z,51.40
2018-05-25T18:38:33.223Z,52.10
2018-05-25T18:41:03.228Z,52.60
2018-05-25T18:43:31.712Z,52.50
2018-05-25T18:46:00.964Z,52.90
2018-05-25T18:48:29.561Z,52.90
2018-05-25T18:50:59.138Z,53.20
2018-05-25T18:53:27.612Z,53.80
2018-05-25T18:55:56.171Z,54.20
2018-05-25T18:58:26.177Z,54.30
2018-05-25T19:00:54.699Z,54.20
2018-05-25T19:03:23.217Z,54.20
2018-05-25T19:05:51.671Z,54.50
2018-05-25T19:08:20.126Z,54.50
2018-05-25T19:10:49.284Z,55.30
2018-05-25T19:13:17.817Z,55.20
2018-05-25T19:15:47.650Z,55.40
2018-05-25T19:18:16.149Z,55.40
2018-05-25T19:20:44.627Z,55.50
2018-05-25T19:23:14.283Z,55.70
2018-05-25T19:25:42.826Z,56.20
2018-05-25T19:28:13.229Z,57.20
2018-05-25T19:30:42.925Z,57.00
2018-05-25T19:33:14.535Z,57.50
2018-05-25T19:35:44.319Z,57.40
2018-05-25T19:38:13.050Z,57.50
2018-05-25T19:40:42.577Z,57.60
2018-05-25T19:43:11.363Z,57.70
2018-05-25T19:45:40.086Z,58.10
2018-05-25T19:48:08.594Z,58.10
2018-05-25T19:50:40.144Z,58.20
2018-05-25T19:53:08.776Z,58.70
2018-05-25T19:55:40.644Z,59.00
2018-05-25T19:58:12.795Z,59.30
2018-05-25T20:00:42.121Z,59.40
2018-05-25T20:03:12.154Z,60.30
2018-05-25T20:05:42.375Z,60.20
2018-05-25T20:08:12.314Z,60.40
2018-05-25T20:10:43.651Z,60.80
2018-05-25T20:13:14.302Z,61.10
2018-05-25T20:15:43.175Z,60.90
2018-05-25T20:18:13.895Z,62.00
2018-05-25T20:20:44.570Z,61.40
2018-05-25T20:23:13.997Z,61.60
2018-05-25T20:25:44.765Z,62.20
2018-05-25T20:28:14.174Z,62.20
2018-05-25T20:30:43.844Z,62.30
2018-05-25T20:33:12.631Z,62.60
2018-05-25T20:35:44.338Z,63.30
2018-05-25T21:56:22.408Z,63.50
2018-05-25T21:58:52.999Z,72.90
2018-05-25T22:01:22.283Z,72.80
2018-05-25T22:03:51.789Z,74.10
2018-05-25T22:06:24.444Z,74.60
2018-05-25T22:08:56.460Z,75.30
2018-05-25T22:11:27.455Z,75.20
2018-05-25T22:13:58.114Z,76.20
2018-05-25T22:16:29.783Z,76.50
2018-05-25T22:18:59.191Z,76.70
2018-05-25T22:21:31.923Z,77.20
2018-05-25T22:24:02.415Z,77.90
2018-05-25T22:26:35.679Z,78.30
2018-05-25T22:29:05.783Z,78.40
2018-05-25T22:31:37.359Z,79.30
2018-05-25T22:34:06.778Z,79.70
2018-05-25T22:36:35.570Z,80.50
2018-05-25T22:39:05.375Z,80.80
2018-05-25T22:41:37.593Z,81.20
2018-05-25T22:44:18.273Z,82.40
2018-05-25T22:46:57.962Z,82.20
2018-05-25T22:49:38.565Z,82.60
2018-05-25T22:52:30.734Z,83.70
2018-05-25T22:54:59.473Z,83.70
2018-05-25T22:57:28.709Z,85.00
2018-05-25T22:59:58.573Z,85.40
2018-05-25T23:02:27.310Z,86.40
2018-05-25T23:04:56.044Z,86.70
2018-05-25T23:07:26.613Z,87.20
2018-05-25T23:09:57.616Z,88.00
2018-05-25T23:59:11.563Z,88.00
